Time;durP1;ratioP1;P1;durP2;ratioP2;P2;SDS_P1;SDS_P2;PMS_P1;PMS_P2;Temp;Humidity;BMP_temperature;BMP_pressure;BME280_temperature;BME280_humidity;BME280_pressure;Samples;Min_cycle;Max_cycle;Signal;HPM_P1;HPM_P2
2024/02/12 00:01:29;;;;;;;;;;;;;;;5.64;100.00;99213.41;5117264;27;19920;-78
2024/02/12 00:03:55;;;;;;;;;;;;;;;5.51;100.00;99217.69;5125602;27;19919;-78
2024/02/12 00:06:21;;;;;;;;;;;;;;;5.49;100.00;99221.59;5123979;27;19971;-78
2024/02/12 00:08:46;;;;;;;;;;;;;;;5.43;100.00;99225.91;5124810;27;20287;-78
2024/02/12 00:11:11;;;;;;;;;;;;;;;5.41;100.00;99227.97;5117370;27;19916;-76
2024/02/12 00:13:38;;;;;;;;;;;;;;;5.44;100.00;99231.03;5132069;27;20406;-79
2024/02/12 00:16:05;;;;;;;;;;;;;;;5.35;100.00;99240.28;5119718;27;19922;-78
2024/02/12 00:18:31;;;;;;;;;;;;;;;5.38;100.00;99237.22;5121963;27;19968;-79
2024/02/12 00:20:56;;;;;;;;;;;;;;;5.30;100.00;99240.84;5123989;27;20014;-78
2024/02/12 00:23:22;;;;;;;;;;;;;;;5.32;100.00;99243.34;5118363;27;20065;-78
2024/02/12 00:25:47;;;;;;;;;;;;;;;5.24;100.00;99252.34;5121438;27;20017;-78
2024/02/12 00:28:12;;;;;;;;;;;;;;;5.23;100.00;99248.03;5119482;27;20334;-78
2024/02/12 00:30:39;;;;;;;;;;;;;;;5.27;100.00;99241.28;5121271;27;20298;-79
2024/02/12 00:33:04;;;;;;;;;;;;;;;5.18;100.00;99244.34;5114654;27;20428;-76
2024/02/12 00:35:31;;;;;;;;;;;;;;;4.93;100.00;99244.88;5114188;27;19963;-77
2024/02/12 00:37:56;;;;;;;;;;;;;;;4.79;100.00;99244.00;5119136;27;19920;-77
2024/02/12 00:40:22;;;;;;;;;;;;;;;4.88;100.00;99242.81;5121063;27;19946;-77
2024/02/12 00:42:49;;;;;;;;;;;;;;;4.81;100.00;99249.94;5125733;27;19984;-77
2024/02/12 00:45:14;;;;;;;;;;;;;;;4.86;100.00;99245.66;5111889;27;19923;-78
2024/02/12 00:47:40;;;;;;;;;;;;;;;4.78;100.00;99253.00;5122044;27;19934;-78
2024/02/12 00:50:05;;;;;;;;;;;;;;;4.65;100.00;99249.28;5116385;27;22253;-78
2024/02/12 00:52:33;;;;;;;;;;;;;;;4.60;100.00;99258.88;5119340;27;20279;-78
2024/02/12 00:54:58;;;;;;;;;;;;;;;4.66;100.00;99252.78;5118447;27;19995;-77
2024/02/12 00:57:24;;;;;;;;;;;;;;;4.67;100.00;99251.75;5119735;27;20379;-77
2024/02/12 00:59:49;;;;;;;;;;;;;;;4.65;100.00;99259.94;5123056;27;20420;-77
2024/02/12 01:02:14;;;;;;;;;;;;;;;4.69;100.00;99261.19;5121112;27;19924;-77
2024/02/12 01:04:39;;;;;;;;;;;;;;;4.65;100.00;99265.25;5116875;27;19920;-77
2024/02/12 01:07:05;;;;;;;;;;;;;;;4.68;100.00;99278.19;5115940;27;20386;-77
2024/02/12 01:09:30;;;;;;;;;;;;;;;4.70;100.00;99278.81;5127271;27;20610;-77
2024/02/12 01:11:56;;;;;;;;;;;;;;;4.72;100.00;99280.47;5114488;27;20438;-77
2024/02/12 01:14:21;;;;;;;;;;;;;;;4.74;100.00;99289.09;5117177;27;19919;-77
2024/02/12 01:16:46;;;;;;;;;;;;;;;4.63;100.00;99287.81;5117435;27;19935;-77
2024/02/12 01:19:11;;;;;;;;;;;;;;;4.67;100.00;99295.22;5114640;27;20268;-77
2024/02/12 01:21:37;;;;;;;;;;;;;;;4.65;100.00;99296.44;5124644;27;20282;-77
2024/02/12 01:24:02;;;;;;;;;;;;;;;4.62;100.00;99292.31;5109538;27;20300;-77
2024/02/12 01:26:27;;;;;;;;;;;;;;;4.67;100.00;99297.88;5115410;27;20373;-77
2024/02/12 01:28:53;;;;;;;;;;;;;;;4.54;100.00;99295.94;5119790;27;19988;-77
2024/02/12 01:31:18;;;;;;;;;;;;;;;4.48;100.00;99302.09;5117279;27;19927;-76
2024/02/12 01:33:44;;;;;;;;;;;;;;;4.39;100.00;99304.06;5115698;27;19928;-76
2024/02/12 01:36:09;;;;;;;;;;;;;;;4.31;100.00;99317.53;5121847;27;19927;-77
2024/02/12 01:38:35;;;;;;;;;;;;;;;4.32;100.00;99311.19;5093114;28;19927;-76
2024/02/12 01:41:00;;;;;;;;;;;;;;;4.37;100.00;99310.59;5115365;27;20329;-76
2024/02/12 01:43:32;;;;;;;;;;;;;;;4.53;100.00;99318.28;5114013;27;20420;-76
2024/02/12 01:45:59;;;;;;;;;;;;;;;4.58;100.00;99317.72;5118190;27;19919;-76
2024/02/12 01:48:25;;;;;;;;;;;;;;;4.76;100.00;99322.53;5115835;27;19995;-77
2024/02/12 01:50:50;;;;;;;;;;;;;;;4.92;100.00;99323.22;5097678;27;19928;-77
2024/02/12 01:53:16;;;;;;;;;;;;;;;4.99;100.00;99329.44;5121593;27;19972;-76
2024/02/12 01:55:41;;;;;;;;;;;;;;;4.97;100.00;99331.47;5116256;27;20041;-78
2024/02/12 01:58:07;;;;;;;;;;;;;;;4.90;100.00;99333.25;5101307;27;19924;-78
2024/02/12 02:00:32;;;;;;;;;;;;;;;4.97;100.00;99332.28;5123393;27;20359;-76
2024/02/12 02:02:57;;;;;;;;;;;;;;;4.95;100.00;99326.31;5114834;27;20303;-76
2024/02/12 02:05:25;;;;;;;;;;;;;;;4.98;100.00;99335.78;5120188;27;20283;-77
2024/02/12 02:07:52;;;;;;;;;;;;;;;5.00;100.00;99342.53;5128194;27;20011;-79
2024/02/12 02:10:17;;;;;;;;;;;;;;;5.04;100.00;99342.16;5119952;27;19923;-76
2024/02/12 02:12:43;;;;;;;;;;;;;;;5.07;100.00;99342.56;5117389;27;20488;-76
2024/02/12 02:15:08;;;;;;;;;;;;;;;5.07;100.00;99347.91;5122569;27;20295;-76
2024/02/12 02:17:33;;;;;;;;;;;;;;;5.08;100.00;99346.09;5103066;28;20393;-78
2024/02/12 02:19:59;;;;;;;;;;;;;;;5.14;100.00;99347.94;5115010;27;19916;-76
2024/02/12 02:22:25;;;;;;;;;;;;;;;5.17;100.00;99358.22;5111594;27;19927;-78
2024/02/12 02:24:50;;;;;;;;;;;;;;;5.19;100.00;99360.69;5120275;27;19922;-77
2024/02/12 02:27:15;;;;;;;;;;;;;;;5.19;100.00;99356.19;5110997;27;19920;-77
2024/02/12 02:29:40;;;;;;;;;;;;;;;5.21;100.00;99359.47;5115971;27;19931;-77
2024/02/12 02:32:06;;;;;;;;;;;;;;;5.22;100.00;99363.78;5122942;27;19920;-79
2024/02/12 02:34:32;;;;;;;;;;;;;;;5.23;100.00;99372.59;5103783;28;19919;-79
2024/02/12 02:36:57;;;;;;;;;;;;;;;5.24;100.00;99364.41;5112965;27;20291;-77
2024/02/12 02:39:22;;;;;;;;;;;;;;;5.29;100.00;99370.00;5119749;27;19930;-77
2024/02/12 02:41:48;;;;;;;;;;;;;;;5.26;100.00;99370.38;5110124;28;19919;-77
2024/02/12 02:44:13;;;;;;;;;;;;;;;5.25;100.00;99370.56;5111198;28;19971;-78
2024/02/12 02:46:38;;;;;;;;;;;;;;;5.25;100.00;99366.06;5112583;27;21356;-78
2024/02/12 02:49:03;;;;;;;;;;;;;;;5.35;100.00;99373.69;5105503;28;20484;-78
2024/02/12 02:51:29;;;;;;;;;;;;;;;5.31;100.00;99372.44;5119751;28;20355;-77
2024/02/12 02:53:54;;;;;;;;;;;;;;;5.28;100.00;99372.84;5118187;28;20493;-78
2024/02/12 02:56:20;;;;;;;;;;;;;;;5.25;100.00;99379.41;5111276;28;20401;-78
2024/02/12 02:58:47;;;;;;;;;;;;;;;5.25;100.00;99375.91;5115206;27;19962;-77
2024/02/12 03:01:12;;;;;;;;;;;;;;;5.22;100.00;99377.13;5118259;27;19919;-78
2024/02/12 03:03:38;;;;;;;;;;;;;;;5.26;100.00;99385.56;5116199;27;19946;-77
2024/02/12 03:06:05;;;;;;;;;;;;;;;5.20;100.00;99389.84;5117663;27;19916;-77
2024/02/12 03:08:34;;;;;;;;;;;;;;;5.20;100.00;99381.84;5124123;27;19927;-78
2024/02/12 03:11:01;;;;;;;;;;;;;;;5.15;100.00;99382.44;5114327;27;20093;-77
2024/02/12 03:13:26;;;;;;;;;;;;;;;5.09;100.00;99387.75;5115065;27;20379;-77
2024/02/12 03:15:51;;;;;;;;;;;;;;;5.07;100.00;99382.59;5118146;27;19973;-77
2024/02/12 03:18:20;;;;;;;;;;;;;;;5.05;100.00;99387.28;5123201;27;19916;-77
2024/02/12 03:20:45;;;;;;;;;;;;;;;5.04;100.00;99390.97;5123697;27;19931;-77
2024/02/12 03:23:13;;;;;;;;;;;;;;;4.99;100.00;99388.91;5125285;27;19916;-77
2024/02/12 03:25:38;;;;;;;;;;;;;;;4.87;100.00;99395.81;5121618;27;20256;-77
2024/02/12 03:28:04;;;;;;;;;;;;;;;4.82;100.00;99403.56;5117517;27;19927;-78
2024/02/12 03:30:29;;;;;;;;;;;;;;;4.79;100.00;99403.94;5116840;27;19927;-78
2024/02/12 03:32:55;;;;;;;;;;;;;;;4.82;100.00;99404.41;5120098;27;19924;-78
2024/02/12 03:35:20;;;;;;;;;;;;;;;4.89;100.00;99404.44;5116088;27;19920;-78
2024/02/12 03:37:46;;;;;;;;;;;;;;;4.92;100.00;99414.72;5122354;27;19927;-78
2024/02/12 03:40:13;;;;;;;;;;;;;;;4.93;100.00;99410.22;5115292;27;19970;-77
2024/02/12 03:42:38;;;;;;;;;;;;;;;4.94;100.00;99422.53;5124049;27;19920;-78
2024/02/12 03:45:05;;;;;;;;;;;;;;;4.97;100.00;99414.94;5127420;27;20014;-77
2024/02/12 03:47:38;;;;;;;;;;;;;;;5.04;100.00;99425.66;5107931;27;19920;-78
2024/02/12 04:00:59;;;;;;;;;;;;;;;5.14;100.00;99439.47;5120020;27;20359;-81
2024/02/12 04:03:25;;;;;;;;;;;;;;;5.11;100.00;99445.19;5122111;27;20363;-80
2024/02/12 04:05:50;;;;;;;;;;;;;;;5.10;100.00;99454.22;5130291;27;19927;-81
2024/02/12 04:08:16;;;;;;;;;;;;;;;5.14;100.00;99455.47;5124040;27;19907;-82
2024/02/12 04:10:42;;;;;;;;;;;;;;;5.16;100.00;99460.59;5118638;27;19976;-80
2024/02/12 04:13:07;;;;;;;;;;;;;;;5.20;100.00;99469.88;5117676;27;19920;-80
2024/02/12 04:15:34;;;;;;;;;;;;;;;5.24;100.00;99460.47;5119425;27;20623;-81
2024/02/12 04:18:00;;;;;;;;;;;;;;;5.25;100.00;99466.63;5120981;27;20014;-81
2024/02/12 04:20:26;;;;;;;;;;;;;;;5.24;100.00;99472.97;5119577;27;20002;-80
2024/02/12 04:22:52;;;;;;;;;;;;;;;5.26;100.00;99482.44;5126613;27;19923;-80
2024/02/12 04:25:19;;;;;;;;;;;;;;;5.23;100.00;99480.16;5114247;27;20356;-81
2024/02/12 04:27:45;;;;;;;;;;;;;;;5.24;100.00;99478.31;5123439;27;19923;-81
2024/02/12 04:30:11;;;;;;;;;;;;;;;5.23;100.00;99477.50;5117837;27;19951;-82
2024/02/12 04:32:36;;;;;;;;;;;;;;;5.22;100.00;99475.84;5113827;27;20315;-81
2024/02/12 04:35:03;;;;;;;;;;;;;;;5.19;100.00;99484.22;5125475;27;20352;-81
2024/02/12 04:37:29;;;;;;;;;;;;;;;5.16;100.00;99492.63;5112995;28;19926;-81
2024/02/12 04:39:54;;;;;;;;;;;;;;;5.11;100.00;99481.72;5115352;27;20022;-81
2024/02/12 04:42:21;;;;;;;;;;;;;;;5.08;100.00;99493.59;5121746;27;19924;-81
2024/02/12 04:44:46;;;;;;;;;;;;;;;5.06;100.00;99487.63;5113992;27;19946;-81
2024/02/12 04:47:12;;;;;;;;;;;;;;;4.97;100.00;99502.94;5121733;27;20867;-81
2024/02/12 04:49:37;;;;;;;;;;;;;;;4.90;100.00;99502.09;5127626;27;19971;-82
2024/02/12 04:52:03;;;;;;;;;;;;;;;4.85;100.00;99499.19;5126431;27;19954;-81
2024/02/12 04:54:28;;;;;;;;;;;;;;;4.81;100.00;99503.22;5117562;27;20299;-82
2024/02/12 04:56:53;;;;;;;;;;;;;;;4.83;100.00;99504.72;5122332;27;19927;-76
2024/02/12 04:59:19;;;;;;;;;;;;;;;4.83;100.00;99495.88;5125005;27;19926;-76
2024/02/12 05:01:45;;;;;;;;;;;;;;;4.79;100.00;99505.25;5118971;27;19928;-76
2024/02/12 05:04:10;;;;;;;;;;;;;;;4.75;100.00;99504.03;5118643;27;20018;-78
2024/02/12 05:06:36;;;;;;;;;;;;;;;4.77;100.00;99507.28;5112203;28;20423;-76
2024/02/12 05:09:04;;;;;;;;;;;;;;;4.80;100.00;99504.25;5112829;27;19920;-77
2024/02/12 05:11:30;;;;;;;;;;;;;;;4.84;100.00;99498.38;5128251;27;19935;-78
2024/02/12 05:13:58;;;;;;;;;;;;;;;4.86;100.00;99506.16;5123436;27;19915;-79
2024/02/12 05:16:30;;;;;;;;;;;;;;;4.81;100.00;99508.56;5113608;27;20022;-78
2024/02/12 05:24:29;;;;;;;;;;;;;;;4.65;100.00;99517.69;5111263;27;19977;-80
2024/02/12 05:26:56;;;;;;;;;;;;;;;4.63;100.00;99515.19;5118659;27;19920;-78
2024/02/12 05:29:21;;;;;;;;;;;;;;;4.68;100.00;99519.94;5121148;27;19923;-78
2024/02/12 05:31:47;;;;;;;;;;;;;;;4.74;100.00;99523.69;5111588;28;19920;-80
2024/02/12 05:34:12;;;;;;;;;;;;;;;4.79;100.00;99526.59;5118124;27;20005;-79
2024/02/12 05:36:38;;;;;;;;;;;;;;;4.77;100.00;99524.13;5112800;27;19919;-78
2024/02/12 05:39:03;;;;;;;;;;;;;;;4.56;100.00;99527.63;5110794;27;19926;-80
2024/02/12 05:41:28;;;;;;;;;;;;;;;4.55;100.00;99531.31;5119072;27;19923;-79
2024/02/12 05:43:54;;;;;;;;;;;;;;;4.57;100.00;99537.28;5115995;27;19923;-80
2024/02/12 05:46:19;;;;;;;;;;;;;;;4.47;100.00;99531.44;5123581;27;20455;-80
2024/02/12 05:48:44;;;;;;;;;;;;;;;4.44;100.00;99539.78;5121067;27;20072;-78
2024/02/12 05:51:10;;;;;;;;;;;;;;;4.29;100.00;99543.34;5119853;27;20015;-78
2024/02/12 05:53:36;;;;;;;;;;;;;;;4.24;100.00;99548.41;5119803;27;20022;-80
2024/02/12 05:56:01;;;;;;;;;;;;;;;4.20;100.00;99544.47;5113698;27;19926;-80
2024/02/12 05:58:26;;;;;;;;;;;;;;;4.24;100.00;99551.06;5106525;27;19920;-80
2024/02/12 06:00:52;;;;;;;;;;;;;;;4.25;100.00;99558.03;5111280;27;19928;-78
2024/02/12 06:03:18;;;;;;;;;;;;;;;4.17;100.00;99560.84;5116776;27;19954;-80
2024/02/12 06:05:43;;;;;;;;;;;;;;;4.15;100.00;99561.00;5123059;27;20335;-80
2024/02/12 06:08:09;;;;;;;;;;;;;;;4.14;100.00;99555.88;5116618;27;19920;-79
2024/02/12 06:10:34;;;;;;;;;;;;;;;4.15;100.00;99562.84;5111248;28;19935;-79
2024/02/12 06:13:00;;;;;;;;;;;;;;;4.12;100.00;99561.41;5113617;27;19958;-79
2024/02/12 06:15:25;;;;;;;;;;;;;;;4.12;100.00;99563.22;5125746;27;20371;-79
2024/02/12 06:17:52;;;;;;;;;;;;;;;4.14;100.00;99567.38;5115463;27;19923;-79
2024/02/12 06:20:17;;;;;;;;;;;;;;;4.12;100.00;99563.22;5117100;27;19916;-80
2024/02/12 06:22:45;;;;;;;;;;;;;;;4.17;100.00;99571.50;5111105;28;20418;-79
2024/02/12 06:25:12;;;;;;;;;;;;;;;4.20;100.00;99571.94;5119019;27;19923;-79
2024/02/12 06:27:37;;;;;;;;;;;;;;;4.15;100.00;99568.19;5111735;27;19942;-79
2024/02/12 06:30:03;;;;;;;;;;;;;;;4.13;100.00;99562.22;5110611;28;20291;-79
2024/02/12 06:32:29;;;;;;;;;;;;;;;4.15;100.00;99568.19;5119702;27;19930;-79
2024/02/12 06:34:54;;;;;;;;;;;;;;;4.05;100.00;99571.97;5121337;27;20279;-78
2024/02/12 06:37:20;;;;;;;;;;;;;;;4.00;100.00;99571.69;5111756;28;19945;-78
2024/02/12 06:39:45;;;;;;;;;;;;;;;3.97;100.00;99577.38;5111470;28;19924;-78
2024/02/12 06:42:11;;;;;;;;;;;;;;;3.92;100.00;99582.44;5109119;27;19927;-78
2024/02/12 06:44:36;;;;;;;;;;;;;;;3.94;100.00;99588.41;5124113;27;19923;-78
2024/02/12 06:47:01;;;;;;;;;;;;;;;3.82;100.00;99603.19;5118694;28;19924;-79
2024/02/12 06:49:26;;;;;;;;;;;;;;;3.71;100.00;99597.31;5110579;28;19920;-79
2024/02/12 06:51:52;;;;;;;;;;;;;;;3.73;100.00;99602.47;5116024;28;19926;-80
2024/02/12 06:54:18;;;;;;;;;;;;;;;3.69;100.00;99609.16;5125325;28;20010;-79
2024/02/12 06:56:43;;;;;;;;;;;;;;;3.69;100.00;99609.16;5115172;28;19999;-79
2024/02/12 06:59:08;;;;;;;;;;;;;;;3.68;100.00;99605.69;5118288;28;19959;-79
2024/02/12 07:01:33;;;;;;;;;;;;;;;3.75;100.00;99619.88;5118164;28;19970;-80
2024/02/12 07:03:59;;;;;;;;;;;;;;;3.80;100.00;99619.34;5114818;28;20390;-79
2024/02/12 07:06:25;;;;;;;;;;;;;;;3.84;100.00;99633.13;5111042;28;19930;-79
2024/02/12 07:08:50;;;;;;;;;;;;;;;3.93;100.00;99632.00;5110812;28;20011;-79
2024/02/12 07:11:15;;;;;;;;;;;;;;;3.94;100.00;99633.66;5117069;28;19966;-79
2024/02/12 07:13:40;;;;;;;;;;;;;;;4.02;100.00;99646.91;5119751;28;20030;-79
2024/02/12 07:16:06;;;;;;;;;;;;;;;4.15;100.00;99646.22;5106181;28;19978;-79
2024/02/12 07:18:31;;;;;;;;;;;;;;;4.20;100.00;99656.34;5111613;28;19926;-78
2024/02/12 07:20:56;;;;;;;;;;;;;;;4.17;100.00;99659.38;5114071;28;20320;-78
2024/02/12 07:23:21;;;;;;;;;;;;;;;4.34;100.00;99658.19;5110716;28;19963;-80
2024/02/12 07:25:47;;;;;;;;;;;;;;;4.36;100.00;99656.16;5109302;28;19972;-79
2024/02/12 07:28:12;;;;;;;;;;;;;;;4.39;100.00;99653.13;5118331;28;19955;-79
2024/02/12 07:30:39;;;;;;;;;;;;;;;4.26;100.00;99668.91;5122414;28;19920;-80
2024/02/12 07:33:05;;;;;;;;;;;;;;;4.18;100.00;99669.03;5113462;28;19930;-80
2024/02/12 07:35:30;;;;;;;;;;;;;;;4.27;100.00;99672.44;5110434;28;19920;-79
2024/02/12 07:37:56;;;;;;;;;;;;;;;4.33;100.00;99674.34;5125189;28;20335;-79
2024/02/12 07:40:21;;;;;;;;;;;;;;;4.39;100.00;99682.44;5125411;28;19934;-80
2024/02/12 07:42:46;;;;;;;;;;;;;;;4.43;100.00;99682.88;5122677;28;19920;-80
2024/02/12 07:45:13;;;;;;;;;;;;;;;4.33;100.00;99691.16;5116185;27;19933;-78
2024/02/12 07:47:39;;;;;;;;;;;;;;;4.29;100.00;99687.19;5116932;27;19945;-80
2024/02/12 07:50:07;;;;;;;;;;;;;;;4.40;100.00;99688.56;5122630;27;20018;-79
2024/02/12 07:52:32;;;;;;;;;;;;;;;4.47;100.00;99701.97;5114670;27;19924;-78
2024/02/12 07:54:58;;;;;;;;;;;;;;;4.54;100.00;99690.38;5122460;27;19926;-78
2024/02/12 07:57:23;;;;;;;;;;;;;;;4.57;100.00;99697.22;5113453;27;19945;-80
2024/02/12 07:59:48;;;;;;;;;;;;;;;4.59;100.00;99700.50;5120638;27;19955;-79
2024/02/12 08:02:14;;;;;;;;;;;;;;;4.60;100.00;99709.31;5115764;27;19958;-79
2024/02/12 08:04:39;;;;;;;;;;;;;;;4.65;100.00;99702.41;5117805;27;20253;-79
2024/02/12 08:07:05;;;;;;;;;;;;;;;4.64;100.00;99706.09;5122525;27;20232;-79
2024/02/12 08:09:30;;;;;;;;;;;;;;;4.48;100.00;99714.28;5112156;27;20299;-79
2024/02/12 08:11:55;;;;;;;;;;;;;;;4.55;100.00;99715.22;5123493;27;20022;-79
2024/02/12 08:14:20;;;;;;;;;;;;;;;4.63;100.00;99715.09;5122951;27;19919;-79
2024/02/12 08:16:46;;;;;;;;;;;;;;;4.72;100.00;99720.34;5121474;27;19989;-79
2024/02/12 08:19:11;;;;;;;;;;;;;;;4.75;100.00;99719.97;5124474;27;19919;-80
2024/02/12 08:21:36;;;;;;;;;;;;;;;4.79;100.00;99726.56;5121228;27;20020;-79
2024/02/12 08:24:03;;;;;;;;;;;;;;;4.77;100.00;99726.75;5113156;27;19981;-80
2024/02/12 08:26:29;;;;;;;;;;;;;;;4.83;100.00;99728.69;5123237;27;19919;-80
2024/02/12 08:28:54;;;;;;;;;;;;;;;4.84;100.00;99742.84;5127472;27;19924;-79
2024/02/12 08:31:20;;;;;;;;;;;;;;;4.87;100.00;99737.13;5124815;27;19919;-79
2024/02/12 08:33:47;;;;;;;;;;;;;;;4.94;100.00;99746.03;5118102;27;19927;-79
2024/02/12 08:36:14;;;;;;;;;;;;;;;4.99;100.00;99745.47;5100143;27;19919;-79
2024/02/12 08:38:39;;;;;;;;;;;;;;;4.98;100.00;99749.97;5117290;27;20011;-79
2024/02/12 08:41:05;;;;;;;;;;;;;;;5.07;100.00;99752.53;5116019;27;20379;-80
2024/02/12 08:43:33;;;;;;;;;;;;;;;5.15;100.00;99752.41;5124660;27;19924;-80
2024/02/12 08:45:58;;;;;;;;;;;;;;;5.22;100.00;99757.81;5113930;27;19924;-80
2024/02/12 08:48:24;;;;;;;;;;;;;;;5.23;100.00;99760.31;5124078;27;20264;-79
2024/02/12 08:50:49;;;;;;;;;;;;;;;5.25;100.00;99763.63;5113221;27;19927;-79
2024/02/12 08:53:15;;;;;;;;;;;;;;;5.24;100.00;99764.63;5111671;27;19969;-79
2024/02/12 08:55:40;;;;;;;;;;;;;;;5.17;100.00;99769.06;5115369;28;20017;-79
2024/02/12 08:58:05;;;;;;;;;;;;;;;5.11;100.00;99769.84;5113670;27;19920;-79
2024/02/12 09:00:30;;;;;;;;;;;;;;;5.20;100.00;99782.03;5109211;27;19945;-80
2024/02/12 09:02:55;;;;;;;;;;;;;;;5.14;100.00;99780.09;5118586;27;19923;-79
2024/02/12 09:05:21;;;;;;;;;;;;;;;5.06;100.00;99789.03;5126282;27;19972;-79
2024/02/12 09:07:46;;;;;;;;;;;;;;;5.11;100.00;99785.84;5115160;27;19924;-80
2024/02/12 09:10:11;;;;;;;;;;;;;;;5.13;100.00;99794.47;5128671;27;19968;-80
2024/02/12 09:12:37;;;;;;;;;;;;;;;5.28;100.00;99789.94;5111095;27;19920;-79
2024/02/12 09:15:07;;;;;;;;;;;;;;;5.19;100.00;99798.25;5112237;27;19923;-80
2024/02/12 09:17:32;;;;;;;;;;;;;;;5.11;100.00;99808.00;5120265;27;19985;-80
2024/02/12 09:19:57;;;;;;;;;;;;;;;5.32;100.00;99801.88;5116362;27;20448;-80
2024/02/12 09:22:22;;;;;;;;;;;;;;;5.30;100.00;99806.56;5122535;27;19946;-80
2024/02/12 09:24:48;;;;;;;;;;;;;;;5.49;100.00;99812.31;5119826;27;19924;-80
2024/02/12 09:27:13;;;;;;;;;;;;;;;5.52;100.00;99814.59;5113996;27;19926;-80
2024/02/12 09:29:38;;;;;;;;;;;;;;;5.54;100.00;99809.91;5125854;27;20320;-80
2024/02/12 09:32:03;;;;;;;;;;;;;;;5.57;100.00;99817.53;5117555;27;19923;-79
2024/02/12 09:34:28;;;;;;;;;;;;;;;5.53;100.00;99821.59;5121458;27;19927;-80
2024/02/12 09:36:54;;;;;;;;;;;;;;;5.60;100.00;99816.31;5113711;27;19928;-79
2024/02/12 09:39:19;;;;;;;;;;;;;;;5.82;100.00;99832.34;5119139;27;19963;-79
2024/02/12 09:41:47;;;;;;;;;;;;;;;5.89;100.00;99831.41;5111882;28;19931;-79
2024/02/12 09:44:12;;;;;;;;;;;;;;;5.91;100.00;99839.25;5112409;27;19920;-80
2024/02/12 09:46:37;;;;;;;;;;;;;;;6.00;100.00;99848.78;5095629;28;19926;-79
2024/02/12 09:49:03;;;;;;;;;;;;;;;5.75;100.00;99845.66;5101577;28;19920;-80
2024/02/12 09:51:28;;;;;;;;;;;;;;;5.67;100.00;99845.75;5119308;27;20429;-79
2024/02/12 09:53:55;;;;;;;;;;;;;;;5.78;100.00;99850.63;5110861;27;20014;-80
2024/02/12 09:56:22;;;;;;;;;;;;;;;5.76;100.00;99849.97;5102538;27;20014;-79
2024/02/12 09:58:47;;;;;;;;;;;;;;;6.10;100.00;99861.81;5093977;28;20023;-79
2024/02/12 10:01:12;;;;;;;;;;;;;;;6.05;100.00;99862.41;5113931;27;19927;-80
2024/02/12 10:03:38;;;;;;;;;;;;;;;6.09;100.00;99876.19;5118326;27;19919;-80
2024/02/12 10:06:03;;;;;;;;;;;;;;;6.28;100.00;99876.56;5110661;27;19956;-80
2024/02/12 10:08:30;;;;;;;;;;;;;;;6.33;100.00;99879.50;5119738;27;19930;-80
2024/02/12 10:10:56;;;;;;;;;;;;;;;6.11;100.00;99887.53;5115577;27;19927;-80
2024/02/12 10:13:21;;;;;;;;;;;;;;;6.00;100.00;99896.88;5121139;27;19923;-80
2024/02/12 10:15:47;;;;;;;;;;;;;;;5.97;100.00;99891.06;5114747;27;20370;-80
2024/02/12 10:18:15;;;;;;;;;;;;;;;6.02;100.00;99896.69;5117661;27;19926;-80
2024/02/12 10:20:41;;;;;;;;;;;;;;;6.01;100.00;99900.38;5124679;27;19915;-80
2024/02/12 10:23:09;;;;;;;;;;;;;;;5.96;100.00;99900.91;5115866;27;19924;-79
2024/02/12 10:25:38;;;;;;;;;;;;;;;5.98;100.00;99904.22;5103587;27;19919;-80
2024/02/12 10:28:03;;;;;;;;;;;;;;;5.98;100.00;99908.75;5117355;27;20335;-79
2024/02/12 10:30:28;;;;;;;;;;;;;;;6.13;100.00;99909.53;5124315;27;20347;-79
2024/02/12 10:32:54;;;;;;;;;;;;;;;6.38;100.00;99914.47;5118966;27;20028;-80
2024/02/12 10:35:20;;;;;;;;;;;;;;;6.74;100.00;99918.88;5094170;28;19950;-80
2024/02/12 10:37:45;;;;;;;;;;;;;;;6.90;100.00;99914.25;5117796;27;19931;-80
2024/02/12 10:40:13;;;;;;;;;;;;;;;7.10;100.00;99912.53;5097343;28;19964;-80
2024/02/12 10:42:41;;;;;;;;;;;;;;;7.61;100.00;99921.19;5102880;28;20321;-80
2024/02/12 10:45:07;;;;;;;;;;;;;;;7.97;100.00;99929.97;5107785;28;19920;-80
2024/02/12 10:47:35;;;;;;;;;;;;;;;7.63;100.00;99931.72;5093656;28;19920;-80
2024/02/12 10:50:00;;;;;;;;;;;;;;;7.34;100.00;99918.41;5108523;28;19920;-79
2024/02/12 10:52:25;;;;;;;;;;;;;;;7.36;100.00;99924.41;5107706;28;19926;-79
2024/02/12 10:54:51;;;;;;;;;;;;;;;7.26;100.00;99926.59;5102707;28;20018;-79
2024/02/12 10:57:16;;;;;;;;;;;;;;;7.17;100.00;99936.63;5092780;28;20014;-81
2024/02/12 10:59:42;;;;;;;;;;;;;;;7.11;100.00;99930.22;5109789;28;19920;-79
2024/02/12 11:02:11;;;;;;;;;;;;;;;7.43;100.00;99935.94;5114422;28;19919;-80
2024/02/12 11:04:38;;;;;;;;;;;;;;;8.06;100.00;99939.47;5111323;28;19928;-80
2024/02/12 11:07:09;;;;;;;;;;;;;;;8.06;100.00;99942.13;5121960;28;19968;-79
2024/02/12 11:09:34;;;;;;;;;;;;;;;8.06;100.00;99944.81;5119709;28;20274;-79
2024/02/12 11:11:59;;;;;;;;;;;;;;;7.99;100.00;99941.31;5126405;28;20432;-80
2024/02/12 11:14:31;;;;;;;;;;;;;;;7.66;100.00;99942.03;5118360;28;20371;-79
2024/02/12 11:16:56;;;;;;;;;;;;;;;7.59;100.00;99947.34;5128517;28;19946;-79
2024/02/12 11:19:22;;;;;;;;;;;;;;;7.53;100.00;99948.16;5120269;27;20321;-80
2024/02/12 11:21:53;;;;;;;;;;;;;;;7.46;100.00;99953.50;5123115;27;20404;-79
2024/02/12 11:24:18;;;;;;;;;;;;;;;7.38;100.00;99954.50;5126220;27;19920;-80
2024/02/12 11:26:44;;;;;;;;;;;;;;;7.31;100.00;99958.16;5120559;27;19947;-80
2024/02/12 11:29:10;;;;;;;;;;;;;;;7.22;100.00;99957.50;5124524;27;20380;-80
2024/02/12 11:31:39;;;;;;;;;;;;;;;7.09;100.00;99963.56;5109967;27;19949;-79
2024/02/12 11:34:11;;;;;;;;;;;;;;;6.99;100.00;99958.56;5110647;27;19919;-80
2024/02/12 11:36:36;;;;;;;;;;;;;;;6.81;100.00;99965.25;5124733;27;20368;-80
2024/02/12 11:39:03;;;;;;;;;;;;;;;6.90;100.00;99967.75;5112567;27;19920;-80
2024/02/12 11:41:32;;;;;;;;;;;;;;;6.83;100.00;99968.56;5123842;27;19977;-79
2024/02/12 11:43:57;;;;;;;;;;;;;;;6.91;100.00;99972.09;5127639;27;19924;-78
2024/02/12 11:46:24;;;;;;;;;;;;;;;6.88;100.00;99977.84;5125320;27;19923;-79
2024/02/12 11:48:49;;;;;;;;;;;;;;;6.91;100.00;99978.28;5115647;27;19928;-79
2024/02/12 11:51:21;;;;;;;;;;;;;;;7.03;100.00;99975.06;5117960;27;19954;-79
2024/02/12 11:53:50;;;;;;;;;;;;;;;7.28;100.00;99978.94;5117716;27;19919;-79
2024/02/12 11:56:19;;;;;;;;;;;;;;;7.29;100.00;99982.44;5121477;27;19930;-79
2024/02/12 11:58:44;;;;;;;;;;;;;;;7.34;100.00;99979.16;5104572;28;19920;-80
2024/02/12 12:01:10;;;;;;;;;;;;;;;7.51;100.00;99985.03;5113232;27;19920;-78
2024/02/12 12:03:37;;;;;;;;;;;;;;;7.36;100.00;99991.34;5121852;27;19949;-78
2024/02/12 12:06:03;;;;;;;;;;;;;;;7.92;100.00;99994.91;5123658;27;19957;-79
2024/02/12 12:08:29;;;;;;;;;;;;;;;8.46;100.00;99989.69;5122470;27;19928;-78
2024/02/12 12:11:02;;;;;;;;;;;;;;;8.43;100.00;99993.56;5100171;27;20276;-78
2024/02/12 12:13:29;;;;;;;;;;;;;;;8.56;100.00;99990.13;5120016;27;19973;-79
2024/02/12 12:15:54;;;;;;;;;;;;;;;8.48;100.00;99993.81;5117293;27;19923;-79
2024/02/12 12:18:20;;;;;;;;;;;;;;;8.86;99.41;99983.53;5116121;27;19920;-78
2024/02/12 12:20:45;;;;;;;;;;;;;;;8.63;97.68;99979.38;5123451;27;19966;-79
2024/02/12 12:23:12;;;;;;;;;;;;;;;8.46;96.74;99987.00;5122331;27;19920;-79
2024/02/12 12:25:37;;;;;;;;;;;;;;;8.26;99.56;99984.25;5124694;27;19965;-78
2024/02/12 12:28:05;;;;;;;;;;;;;;;8.24;100.00;99989.84;5115436;27;20342;-78
2024/02/12 12:30:32;;;;;;;;;;;;;;;8.35;100.00;99983.88;5122518;27;19919;-79
2024/02/12 12:32:58;;;;;;;;;;;;;;;9.06;97.73;99996.91;5121642;27;19923;-79
2024/02/12 12:35:23;;;;;;;;;;;;;;;9.32;94.51;100003.31;5112086;27;19919;-78
2024/02/12 12:37:50;;;;;;;;;;;;;;;9.43;92.45;99997.28;5118892;27;20401;-79
2024/02/12 12:40:19;;;;;;;;;;;;;;;9.69;89.12;100004.44;5114619;27;19923;-78
2024/02/12 12:42:45;;;;;;;;;;;;;;;10.03;85.89;100004.31;5114085;27;19923;-79
2024/02/12 12:45:10;;;;;;;;;;;;;;;9.65;87.27;99997.81;5112756;27;20377;-79
2024/02/12 12:47:36;;;;;;;;;;;;;;;9.60;88.38;100005.72;5115179;27;19966;-79
2024/02/12 12:50:02;;;;;;;;;;;;;;;8.99;91.27;100010.34;5115454;27;19945;-79
2024/02/12 12:52:30;;;;;;;;;;;;;;;8.92;93.20;100014.88;5114371;27;20343;-78
2024/02/12 12:54:55;;;;;;;;;;;;;;;9.04;94.13;100012.41;5115120;27;20308;-78
2024/02/12 12:57:21;;;;;;;;;;;;;;;8.92;92.34;99999.63;5119177;27;19923;-78